sensor_id;sensor_type;location;lat;lon;timestamp;temperature;humidity
18934;DHT22;9599;53.706;10.384;2023-01-20T00:01:52;0.80;99.90
18934;DHT22;9599;53.706;10.384;2023-01-20T00:04:20;0.80;99.90
18934;DHT22;9599;53.706;10.384;2023-01-20T00:06:48;0.80;99.90
18934;DHT22;9599;53.706;10.384;2023-01-20T00:09:16;0.80;99.90
18934;DHT22;9599;53.706;10.384;2023-01-20T00:11:46;0.80;99.90
18934;DHT22;9599;53.706;10.384;2023-01-20T00:14:14;0.80;99.90
18934;DHT22;9599;53.706;10.384;2023-01-20T00:16:42;0.80;99.90
18934;DHT22;9599;53.706;10.384;2023-01-20T00:19:11;0.80;99.90
18934;DHT22;9599;53.706;10.384;2023-01-20T00:21:39;0.90;99.90
18934;DHT22;9599;53.706;10.384;2023-01-20T00:24:08;0.80;99.90
18934;DHT22;9599;53.706;10.384;2023-01-20T00:26:36;0.80;99.90
18934;DHT22;9599;53.706;10.384;2023-01-20T00:29:05;0.90;99.90
18934;DHT22;9599;53.706;10.384;2023-01-20T00:31:33;0.80;99.90
18934;DHT22;9599;53.706;10.384;2023-01-20T00:34:02;0.80;99.90
18934;DHT22;9599;53.706;10.384;2023-01-20T00:36:31;0.80;99.90
18934;DHT22;9599;53.706;10.384;2023-01-20T00:39:00;0.90;99.90
18934;DHT22;9599;53.706;10.384;2023-01-20T00:41:28;0.90;99.90
18934;DHT22;9599;53.706;10.384;2023-01-20T00:43:56;0.90;99.90
18934;DHT22;9599;53.706;10.384;2023-01-20T00:46:26;0.90;99.90
18934;DHT22;9599;53.706;10.384;2023-01-20T00:48:54;0.90;99.90
18934;DHT22;9599;53.706;10.384;2023-01-20T00:51:22;0.90;99.90
18934;DHT22;9599;53.706;10.384;2023-01-20T00:53:49;0.80;99.90
18934;DHT22;9599;53.706;10.384;2023-01-20T00:56:17;0.90;99.90
18934;DHT22;9599;53.706;10.384;2023-01-20T00:58:45;0.90;99.90
18934;DHT22;9599;53.706;10.384;2023-01-20T01:01:13;0.90;99.90
18934;DHT22;9599;53.706;10.384;2023-01-20T01:03:43;0.80;99.90
18934;DHT22;9599;53.706;10.384;2023-01-20T01:06:13;0.80;99.90
18934;DHT22;9599;53.706;10.384;2023-01-20T01:08:41;0.80;99.90
18934;DHT22;9599;53.706;10.384;2023-01-20T01:11:10;0.80;99.90
18934;DHT22;9599;53.706;10.384;2023-01-20T01:13:38;0.90;99.90
18934;DHT22;9599;53.706;10.384;2023-01-20T01:16:09;0.80;99.90
18934;DHT22;9599;53.706;10.384;2023-01-20T01:18:38;0.80;99.90
18934;DHT22;9599;53.706;10.384;2023-01-20T01:21:09;0.80;99.90
18934;DHT22;9599;53.706;10.384;2023-01-20T01:23:38;0.80;99.90
18934;DHT22;9599;53.706;10.384;2023-01-20T01:26:06;0.80;99.90
18934;DHT22;9599;53.706;10.384;2023-01-20T01:28:34;0.70;99.90
18934;DHT22;9599;53.706;10.384;2023-01-20T01:31:02;0.80;99.90
18934;DHT22;9599;53.706;10.384;2023-01-20T01:33:30;0.80;99.90
18934;DHT22;9599;53.706;10.384;2023-01-20T01:35:59;0.70;99.90
18934;DHT22;9599;53.706;10.384;2023-01-20T01:38:29;0.70;99.90
18934;DHT22;9599;53.706;10.384;2023-01-20T01:40:57;0.70;99.90
18934;DHT22;9599;53.706;10.384;2023-01-20T01:43:27;0.70;99.90
18934;DHT22;9599;53.706;10.384;2023-01-20T01:45:56;0.60;99.90
18934;DHT22;9599;53.706;10.384;2023-01-20T01:48:27;0.60;99.90
18934;DHT22;9599;53.706;10.384;2023-01-20T01:51:02;0.60;99.90
18934;DHT22;9599;53.706;10.384;2023-01-20T01:53:37;0.60;99.90
18934;DHT22;9599;53.706;10.384;2023-01-20T01:56:07;0.60;99.90
18934;DHT22;9599;53.706;10.384;2023-01-20T01:58:37;0.60;99.90
18934;DHT22;9599;53.706;10.384;2023-01-20T02:01:05;0.60;99.90
18934;DHT22;9599;53.706;10.384;2023-01-20T02:03:39;0.60;99.90
18934;DHT22;9599;53.706;10.384;2023-01-20T02:06:09;0.60;99.90
18934;DHT22;9599;53.706;10.384;2023-01-20T02:08:39;0.60;99.90
18934;DHT22;9599;53.706;10.384;2023-01-20T02:11:08;0.60;99.90
18934;DHT22;9599;53.706;10.384;2023-01-20T02:13:36;0.60;99.90
18934;DHT22;9599;53.706;10.384;2023-01-20T02:16:11;0.60;99.90
18934;DHT22;9599;53.706;10.384;2023-01-20T02:18:54;0.60;99.90
18934;DHT22;9599;53.706;10.384;2023-01-20T02:24:42;0.60;99.90
18934;DHT22;9599;53.706;10.384;2023-01-20T02:27:19;0.60;99.90
18934;DHT22;9599;53.706;10.384;2023-01-20T02:30:18;0.60;99.90
18934;DHT22;9599;53.706;10.384;2023-01-20T02:32:55;0.60;99.90
18934;DHT22;9599;53.706;10.384;2023-01-20T02:35:30;0.60;99.90
18934;DHT22;9599;53.706;10.384;2023-01-20T02:38:09;0.60;99.90
18934;DHT22;9599;53.706;10.384;2023-01-20T02:40:42;0.60;99.90
18934;DHT22;9599;53.706;10.384;2023-01-20T02:43:19;0.60;99.90
18934;DHT22;9599;53.706;10.384;2023-01-20T02:45:53;0.60;99.90
18934;DHT22;9599;53.706;10.384;2023-01-20T02:48:27;0.60;99.90
18934;DHT22;9599;53.706;10.384;2023-01-20T02:51:00;0.60;99.90
18934;DHT22;9599;53.706;10.384;2023-01-20T02:53:33;0.60;99.90
18934;DHT22;9599;53.706;10.384;2023-01-20T02:56:05;0.60;99.90
18934;DHT22;9599;53.706;10.384;2023-01-20T02:58:38;0.60;99.90
18934;DHT22;9599;53.706;10.384;2023-01-20T03:01:10;0.60;99.90
18934;DHT22;9599;53.706;10.384;2023-01-20T03:03:43;0.60;99.90
18934;DHT22;9599;53.706;10.384;2023-01-20T03:06:15;0.50;99.90
18934;DHT22;9599;53.706;10.384;2023-01-20T03:08:45;0.50;99.90
18934;DHT22;9599;53.706;10.384;2023-01-20T03:11:15;0.50;99.90
18934;DHT22;9599;53.706;10.384;2023-01-20T03:13:47;0.50;99.90
18934;DHT22;9599;53.706;10.384;2023-01-20T03:16:18;0.50;99.90
18934;DHT22;9599;53.706;10.384;2023-01-20T03:18:49;0.50;99.90
18934;DHT22;9599;53.706;10.384;2023-01-20T03:21:18;0.50;99.90
18934;DHT22;9599;53.706;10.384;2023-01-20T03:23:47;0.50;99.90
18934;DHT22;9599;53.706;10.384;2023-01-20T03:26:18;0.50;99.90
18934;DHT22;9599;53.706;10.384;2023-01-20T03:28:47;0.50;99.90
18934;DHT22;9599;53.706;10.384;2023-01-20T03:31:18;0.50;99.90
18934;DHT22;9599;53.706;10.384;2023-01-20T03:33:50;0.50;99.90
18934;DHT22;9599;53.706;10.384;2023-01-20T03:36:22;0.50;99.90
18934;DHT22;9599;53.706;10.384;2023-01-20T03:38:51;0.50;99.90
18934;DHT22;9599;53.706;10.384;2023-01-20T03:41:27;0.50;99.90
18934;DHT22;9599;53.706;10.384;2023-01-20T03:44:03;0.50;99.90
18934;DHT22;9599;53.706;10.384;2023-01-20T03:46:41;0.60;99.90
18934;DHT22;9599;53.706;10.384;2023-01-20T03:49:16;0.50;99.90
18934;DHT22;9599;53.706;10.384;2023-01-20T03:51:53;0.50;99.90
18934;DHT22;9599;53.706;10.384;2023-01-20T03:54:26;0.50;99.90
18934;DHT22;9599;53.706;10.384;2023-01-20T03:56:59;0.60;99.90
18934;DHT22;9599;53.706;10.384;2023-01-20T03:59:33;0.50;99.90
18934;DHT22;9599;53.706;10.384;2023-01-20T04:02:03;0.50;99.90
18934;DHT22;9599;53.706;10.384;2023-01-20T04:04:37;0.50;99.90
18934;DHT22;9599;53.706;10.384;2023-01-20T04:07:08;0.50;99.90
18934;DHT22;9599;53.706;10.384;2023-01-20T04:09:41;0.50;99.90
18934;DHT22;9599;53.706;10.384;2023-01-20T04:12:09;0.60;99.90
18934;DHT22;9599;53.706;10.384;2023-01-20T04:14:37;0.50;99.90
18934;DHT22;9599;53.706;10.384;2023-01-20T04:17:05;0.50;99.90
18934;DHT22;9599;53.706;10.384;2023-01-20T04:19:34;0.50;99.90
18934;DHT22;9599;53.706;10.384;2023-01-20T04:22:08;0.50;99.90
18934;DHT22;9599;53.706;10.384;2023-01-20T04:24:41;0.50;99.90
18934;DHT22;9599;53.706;10.384;2023-01-20T04:27:10;0.50;99.90
18934;DHT22;9599;53.706;10.384;2023-01-20T04:29:39;0.50;99.90
18934;DHT22;9599;53.706;10.384;2023-01-20T04:32:09;0.50;99.90
18934;DHT22;9599;53.706;10.384;2023-01-20T04:34:38;0.50;99.90
18934;DHT22;9599;53.706;10.384;2023-01-20T04:37:06;0.40;99.90
18934;DHT22;9599;53.706;10.384;2023-01-20T04:39:34;0.50;99.90
18934;DHT22;9599;53.706;10.384;2023-01-20T04:42:02;0.50;99.90
18934;DHT22;9599;53.706;10.384;2023-01-20T04:44:30;0.50;99.90
18934;DHT22;9599;53.706;10.384;2023-01-20T04:46:58;0.50;99.90
18934;DHT22;9599;53.706;10.384;2023-01-20T04:49:26;0.50;99.90
18934;DHT22;9599;53.706;10.384;2023-01-20T04:51:55;0.50;99.90
18934;DHT22;9599;53.706;10.384;2023-01-20T04:54:23;0.50;99.90
18934;DHT22;9599;53.706;10.384;2023-01-20T04:56:51;0.60;99.90
18934;DHT22;9599;53.706;10.384;2023-01-20T04:59:19;0.60;99.90
18934;DHT22;9599;53.706;10.384;2023-01-20T05:01:47;0.60;99.90
18934;DHT22;9599;53.706;10.384;2023-01-20T05:04:15;0.60;99.90
18934;DHT22;9599;53.706;10.384;2023-01-20T05:06:42;0.60;99.90
18934;DHT22;9599;53.706;10.384;2023-01-20T05:09:13;0.60;99.90
18934;DHT22;9599;53.706;10.384;2023-01-20T05:11:42;0.70;99.90
18934;DHT22;9599;53.706;10.384;2023-01-20T05:14:10;0.70;99.90
18934;DHT22;9599;53.706;10.384;2023-01-20T05:16:38;0.70;99.90
18934;DHT22;9599;53.706;10.384;2023-01-20T05:19:06;0.70;99.90
18934;DHT22;9599;53.706;10.384;2023-01-20T05:21:34;0.70;99.90
18934;DHT22;9599;53.706;10.384;2023-01-20T05:24:02;0.70;99.90
18934;DHT22;9599;53.706;10.384;2023-01-20T05:26:32;0.70;99.90
18934;DHT22;9599;53.706;10.384;2023-01-20T05:29:00;0.70;99.90
18934;DHT22;9599;53.706;10.384;2023-01-20T05:31:28;0.70;99.90
18934;DHT22;9599;53.706;10.384;2023-01-20T05:33:56;0.70;99.90
18934;DHT22;9599;53.706;10.384;2023-01-20T05:36:24;0.70;99.90
18934;DHT22;9599;53.706;10.384;2023-01-20T05:38:53;0.70;99.90
18934;DHT22;9599;53.706;10.384;2023-01-20T05:41:21;0.80;99.90
18934;DHT22;9599;53.706;10.384;2023-01-20T05:43:53;0.80;99.90
18934;DHT22;9599;53.706;10.384;2023-01-20T05:46:21;0.80;99.90
18934;DHT22;9599;53.706;10.384;2023-01-20T05:48:49;0.90;99.90
18934;DHT22;9599;53.706;10.384;2023-01-20T05:51:17;0.90;99.90
18934;DHT22;9599;53.706;10.384;2023-01-20T05:53:45;0.90;99.90
18934;DHT22;9599;53.706;10.384;2023-01-20T05:56:13;0.90;99.90
18934;DHT22;9599;53.706;10.384;2023-01-20T05:58:41;0.90;99.90
18934;DHT22;9599;53.706;10.384;2023-01-20T06:01:12;0.90;99.90
18934;DHT22;9599;53.706;10.384;2023-01-20T06:03:41;0.90;99.90
18934;DHT22;9599;53.706;10.384;2023-01-20T06:06:11;0.90;99.90
18934;DHT22;9599;53.706;10.384;2023-01-20T06:08:41;1.00;99.90
18934;DHT22;9599;53.706;10.384;2023-01-20T06:11:09;1.00;99.90
18934;DHT22;9599;53.706;10.384;2023-01-20T06:13:37;1.00;99.90
18934;DHT22;9599;53.706;10.384;2023-01-20T06:16:06;1.00;99.90
18934;DHT22;9599;53.706;10.384;2023-01-20T06:18:35;1.00;99.90
18934;DHT22;9599;53.706;10.384;2023-01-20T06:21:03;1.00;99.90
18934;DHT22;9599;53.706;10.384;2023-01-20T06:23:31;1.00;99.90
18934;DHT22;9599;53.706;10.384;2023-01-20T06:26:00;1.00;99.90
18934;DHT22;9599;53.706;10.384;2023-01-20T06:28:29;1.00;99.90
18934;DHT22;9599;53.706;10.384;2023-01-20T06:30:59;1.00;99.90
18934;DHT22;9599;53.706;10.384;2023-01-20T06:33:28;1.00;99.90
18934;DHT22;9599;53.706;10.384;2023-01-20T06:35:57;1.00;99.90
18934;DHT22;9599;53.706;10.384;2023-01-20T06:38:28;1.00;99.90
18934;DHT22;9599;53.706;10.384;2023-01-20T06:40:56;1.00;99.90
18934;DHT22;9599;53.706;10.384;2023-01-20T06:43:24;1.10;99.90
18934;DHT22;9599;53.706;10.384;2023-01-20T06:45:52;1.00;99.90
18934;DHT22;9599;53.706;10.384;2023-01-20T06:48:24;1.10;99.90
18934;DHT22;9599;53.706;10.384;2023-01-20T06:50:52;1.00;99.90
18934;DHT22;9599;53.706;10.384;2023-01-20T06:53:22;1.00;99.90
18934;DHT22;9599;53.706;10.384;2023-01-20T06:55:54;1.00;99.90
18934;DHT22;9599;53.706;10.384;2023-01-20T06:58:23;1.00;99.90
18934;DHT22;9599;53.706;10.384;2023-01-20T07:00:51;1.00;99.90
18934;DHT22;9599;53.706;10.384;2023-01-20T07:03:19;1.00;99.90
18934;DHT22;9599;53.706;10.384;2023-01-20T07:05:53;1.10;99.90
18934;DHT22;9599;53.706;10.384;2023-01-20T07:08:25;1.10;99.90
18934;DHT22;9599;53.706;10.384;2023-01-20T07:10:53;1.20;99.90
18934;DHT22;9599;53.706;10.384;2023-01-20T07:13:21;1.20;99.90
18934;DHT22;9599;53.706;10.384;2023-01-20T07:15:50;1.20;99.90
18934;DHT22;9599;53.706;10.384;2023-01-20T07:18:17;1.20;99.90
18934;DHT22;9599;53.706;10.384;2023-01-20T07:20:45;1.10;99.90
18934;DHT22;9599;53.706;10.384;2023-01-20T07:23:13;1.10;99.90
18934;DHT22;9599;53.706;10.384;2023-01-20T07:25:43;1.10;99.90
18934;DHT22;9599;53.706;10.384;2023-01-20T07:28:10;1.10;99.90
18934;DHT22;9599;53.706;10.384;2023-01-20T07:30:38;1.10;99.90
18934;DHT22;9599;53.706;10.384;2023-01-20T07:33:06;1.20;99.90
18934;DHT22;9599;53.706;10.384;2023-01-20T07:35:34;1.20;99.90
18934;DHT22;9599;53.706;10.384;2023-01-20T07:38:02;1.20;99.90
18934;DHT22;9599;53.706;10.384;2023-01-20T07:40:30;1.20;99.90
18934;DHT22;9599;53.706;10.384;2023-01-20T07:43:02;1.30;99.90
18934;DHT22;9599;53.706;10.384;2023-01-20T07:45:30;1.30;99.90
18934;DHT22;9599;53.706;10.384;2023-01-20T07:47:58;1.30;99.90
18934;DHT22;9599;53.706;10.384;2023-01-20T07:50:27;1.30;99.90
18934;DHT22;9599;53.706;10.384;2023-01-20T07:52:55;1.30;99.90
18934;DHT22;9599;53.706;10.384;2023-01-20T07:55:23;1.30;99.90
18934;DHT22;9599;53.706;10.384;2023-01-20T07:57:51;1.30;99.90
18934;DHT22;9599;53.706;10.384;2023-01-20T08:00:20;1.20;99.90
18934;DHT22;9599;53.706;10.384;2023-01-20T08:02:48;1.30;99.90
18934;DHT22;9599;53.706;10.384;2023-01-20T08:05:16;1.20;99.90
18934;DHT22;9599;53.706;10.384;2023-01-20T08:07:45;1.30;99.90
18934;DHT22;9599;53.706;10.384;2023-01-20T08:10:16;1.20;99.90
18934;DHT22;9599;53.706;10.384;2023-01-20T08:12:44;1.30;99.90
18934;DHT22;9599;53.706;10.384;2023-01-20T08:15:12;1.30;99.90
18934;DHT22;9599;53.706;10.384;2023-01-20T08:17:41;1.30;99.90
18934;DHT22;9599;53.706;10.384;2023-01-20T08:20:10;1.40;99.90
18934;DHT22;9599;53.706;10.384;2023-01-20T08:22:38;1.30;99.90
18934;DHT22;9599;53.706;10.384;2023-01-20T08:25:07;1.40;99.90
18934;DHT22;9599;53.706;10.384;2023-01-20T08:27:35;1.40;99.90
18934;DHT22;9599;53.706;10.384;2023-01-20T08:30:03;1.50;99.90
18934;DHT22;9599;53.706;10.384;2023-01-20T08:32:31;1.50;99.90
18934;DHT22;9599;53.706;10.384;2023-01-20T08:35:01;1.50;99.90
18934;DHT22;9599;53.706;10.384;2023-01-20T08:37:29;1.40;99.90
18934;DHT22;9599;53.706;10.384;2023-01-20T08:39:57;1.50;99.90
18934;DHT22;9599;53.706;10.384;2023-01-20T08:42:25;1.50;99.90
18934;DHT22;9599;53.706;10.384;2023-01-20T08:44:52;1.50;99.90
18934;DHT22;9599;53.706;10.384;2023-01-20T08:47:20;1.50;99.90
18934;DHT22;9599;53.706;10.384;2023-01-20T08:49:51;1.50;99.90
18934;DHT22;9599;53.706;10.384;2023-01-20T08:52:21;1.60;99.90
18934;DHT22;9599;53.706;10.384;2023-01-20T08:54:50;1.60;99.90
18934;DHT22;9599;53.706;10.384;2023-01-20T08:57:19;1.50;99.90
18934;DHT22;9599;53.706;10.384;2023-01-20T08:59:47;1.60;99.90
18934;DHT22;9599;53.706;10.384;2023-01-20T09:02:16;1.60;99.90
18934;DHT22;9599;53.706;10.384;2023-01-20T09:04:44;1.60;99.90
18934;DHT22;9599;53.706;10.384;2023-01-20T09:07:12;1.60;99.90
18934;DHT22;9599;53.706;10.384;2023-01-20T09:09:42;1.60;99.90
18934;DHT22;9599;53.706;10.384;2023-01-20T09:12:10;1.60;99.90
18934;DHT22;9599;53.706;10.384;2023-01-20T09:14:37;1.60;99.90
18934;DHT22;9599;53.706;10.384;2023-01-20T09:17:06;1.70;99.90
18934;DHT22;9599;53.706;10.384;2023-01-20T09:19:34;1.70;99.90
18934;DHT22;9599;53.706;10.384;2023-01-20T09:22:02;1.70;99.90
18934;DHT22;9599;53.706;10.384;2023-01-20T09:24:30;1.70;99.90
18934;DHT22;9599;53.706;10.384;2023-01-20T09:26:59;1.60;99.90
18934;DHT22;9599;53.706;10.384;2023-01-20T09:29:27;1.70;99.90
18934;DHT22;9599;53.706;10.384;2023-01-20T09:31:55;1.70;99.90
18934;DHT22;9599;53.706;10.384;2023-01-20T09:34:26;1.60;99.90
18934;DHT22;9599;53.706;10.384;2023-01-20T09:36:56;1.60;99.90
18934;DHT22;9599;53.706;10.384;2023-01-20T09:39:45;1.70;99.90
18934;DHT22;9599;53.706;10.384;2023-01-20T09:42:56;1.70;99.90
18934;DHT22;9599;53.706;10.384;2023-01-20T09:45:50;1.70;99.90
18934;DHT22;9599;53.706;10.384;2023-01-20T09:48:26;1.80;99.90
18934;DHT22;9599;53.706;10.384;2023-01-20T09:51:20;1.80;99.90
18934;DHT22;9599;53.706;10.384;2023-01-20T09:54:13;1.80;99.90
18934;DHT22;9599;53.706;10.384;2023-01-20T09:56:47;1.80;99.90
18934;DHT22;9599;53.706;10.384;2023-01-20T09:59:23;1.80;99.90
18934;DHT22;9599;53.706;10.384;2023-01-20T10:01:56;1.70;99.90
18934;DHT22;9599;53.706;10.384;2023-01-20T10:04:31;1.80;99.90
18934;DHT22;9599;53.706;10.384;2023-01-20T10:07:06;1.80;99.90
18934;DHT22;9599;53.706;10.384;2023-01-20T10:09:39;1.80;99.90
18934;DHT22;9599;53.706;10.384;2023-01-20T10:12:13;1.80;99.90
18934;DHT22;9599;53.706;10.384;2023-01-20T10:14:46;1.90;99.90
18934;DHT22;9599;53.706;10.384;2023-01-20T10:17:20;1.90;99.90
18934;DHT22;9599;53.706;10.384;2023-01-20T10:19:53;1.80;99.90
18934;DHT22;9599;53.706;10.384;2023-01-20T10:22:28;1.80;99.90
18934;DHT22;9599;53.706;10.384;2023-01-20T10:25:01;1.80;99.90
18934;DHT22;9599;53.706;10.384;2023-01-20T10:27:33;1.80;99.90
18934;DHT22;9599;53.706;10.384;2023-01-20T10:30:07;1.80;99.90
18934;DHT22;9599;53.706;10.384;2023-01-20T10:32:37;1.80;99.90
18934;DHT22;9599;53.706;10.384;2023-01-20T10:35:11;1.90;99.90
18934;DHT22;9599;53.706;10.384;2023-01-20T10:37:41;2.00;99.90
18934;DHT22;9599;53.706;10.384;2023-01-20T10:40:18;2.00;99.90
18934;DHT22;9599;53.706;10.384;2023-01-20T10:42:54;2.10;99.90
18934;DHT22;9599;53.706;10.384;2023-01-20T10:45:30;2.10;99.90
18934;DHT22;9599;53.706;10.384;2023-01-20T10:48:11;2.10;99.90
18934;DHT22;9599;53.706;10.384;2023-01-20T10:50:51;2.10;99.90
18934;DHT22;9599;53.706;10.384;2023-01-20T10:53:38;2.20;99.90
18934;DHT22;9599;53.706;10.384;2023-01-20T10:56:22;2.30;99.90
18934;DHT22;9599;53.706;10.384;2023-01-20T10:58:53;2.30;99.90
18934;DHT22;9599;53.706;10.384;2023-01-20T11:01:23;2.40;99.90
18934;DHT22;9599;53.706;10.384;2023-01-20T11:03:52;2.40;99.90
18934;DHT22;9599;53.706;10.384;2023-01-20T11:06:21;2.40;99.90
18934;DHT22;9599;53.706;10.384;2023-01-20T11:08:51;2.40;99.90
18934;DHT22;9599;53.706;10.384;2023-01-20T11:11:22;2.40;99.90
18934;DHT22;9599;53.706;10.384;2023-01-20T11:13:51;2.40;99.90
18934;DHT22;9599;53.706;10.384;2023-01-20T11:16:20;2.30;99.90
18934;DHT22;9599;53.706;10.384;2023-01-20T11:18:57;2.30;99.90
18934;DHT22;9599;53.706;10.384;2023-01-20T11:21:28;2.30;99.90
18934;DHT22;9599;53.706;10.384;2023-01-20T11:23:57;2.40;99.90
18934;DHT22;9599;53.706;10.384;2023-01-20T11:26:27;2.40;99.90
18934;DHT22;9599;53.706;10.384;2023-01-20T11:28:57;2.30;99.90
18934;DHT22;9599;53.706;10.384;2023-01-20T11:31:37;2.30;99.90
18934;DHT22;9599;53.706;10.384;2023-01-20T11:34:21;2.30;99.90
18934;DHT22;9599;53.706;10.384;2023-01-20T11:36:50;2.40;99.90
18934;DHT22;9599;53.706;10.384;2023-01-20T11:39:26;2.40;99.90
18934;DHT22;9599;53.706;10.384;2023-01-20T11:42:10;2.50;99.90
18934;DHT22;9599;53.706;10.384;2023-01-20T11:44:42;2.60;99.90
18934;DHT22;9599;53.706;10.384;2023-01-20T11:47:21;2.60;99.90
18934;DHT22;9599;53.706;10.384;2023-01-20T11:50:18;2.60;99.90
18934;DHT22;9599;53.706;10.384;2023-01-20T11:52:49;2.60;99.90
18934;DHT22;9599;53.706;10.384;2023-01-20T11:55:20;2.60;99.90
18934;DHT22;9599;53.706;10.384;2023-01-20T11:57:51;2.70;99.90
18934;DHT22;9599;53.706;10.384;2023-01-20T12:00:32;2.60;99.90
18934;DHT22;9599;53.706;10.384;2023-01-20T12:03:24;2.70;99.90
18934;DHT22;9599;53.706;10.384;2023-01-20T12:06:00;2.70;99.90
18934;DHT22;9599;53.706;10.384;2023-01-20T12:08:37;2.70;99.90
18934;DHT22;9599;53.706;10.384;2023-01-20T12:11:11;2.80;99.90
18934;DHT22;9599;53.706;10.384;2023-01-20T12:13:56;2.90;99.90
18934;DHT22;9599;53.706;10.384;2023-01-20T12:16:45;2.90;99.90
18934;DHT22;9599;53.706;10.384;2023-01-20T12:19:17;3.20;99.90
18934;DHT22;9599;53.706;10.384;2023-01-20T12:21:51;3.50;99.90
18934;DHT22;9599;53.706;10.384;2023-01-20T12:24:22;3.60;99.90
18934;DHT22;9599;53.706;10.384;2023-01-20T12:27:14;3.40;99.90
18934;DHT22;9599;53.706;10.384;2023-01-20T12:29:45;3.40;99.90
18934;DHT22;9599;53.706;10.384;2023-01-20T12:32:15;3.50;99.90
18934;DHT22;9599;53.706;10.384;2023-01-20T12:34:43;3.50;99.90
18934;DHT22;9599;53.706;10.384;2023-01-20T12:37:18;3.50;99.90
18934;DHT22;9599;53.706;10.384;2023-01-20T12:40:07;3.40;99.90
18934;DHT22;9599;53.706;10.384;2023-01-20T12:45:57;3.50;99.90
18934;DHT22;9599;53.706;10.384;2023-01-20T12:48:33;3.40;99.90
18934;DHT22;9599;53.706;10.384;2023-01-20T12:51:13;3.50;99.90
18934;DHT22;9599;53.706;10.384;2023-01-20T12:53:58;3.60;99.90
18934;DHT22;9599;53.706;10.384;2023-01-20T12:56:36;3.70;99.90
18934;DHT22;9599;53.706;10.384;2023-01-20T12:59:14;3.60;99.90
18934;DHT22;9599;53.706;10.384;2023-01-20T13:01:57;3.60;99.90
18934;DHT22;9599;53.706;10.384;2023-01-20T13:05:01;3.60;99.90
18934;DHT22;9599;53.706;10.384;2023-01-20T13:07:47;3.70;99.90
18934;DHT22;9599;53.706;10.384;2023-01-20T13:10:28;3.60;99.90
18934;DHT22;9599;53.706;10.384;2023-01-20T13:13:04;3.60;99.90
18934;DHT22;9599;53.706;10.384;2023-01-20T13:15:40;3.60;99.90
18934;DHT22;9599;53.706;10.384;2023-01-20T13:18:19;3.60;99.90
18934;DHT22;9599;53.706;10.384;2023-01-20T13:20:50;3.60;99.90
18934;DHT22;9599;53.706;10.384;2023-01-20T13:23:22;3.60;99.90
18934;DHT22;9599;53.706;10.384;2023-01-20T13:25:52;3.60;99.90
18934;DHT22;9599;53.706;10.384;2023-01-20T13:28:23;3.60;99.90
18934;DHT22;9599;53.706;10.384;2023-01-20T13:30:53;3.70;99.90
18934;DHT22;9599;53.706;10.384;2023-01-20T13:33:34;3.80;99.90
18934;DHT22;9599;53.706;10.384;2023-01-20T13:36:14;3.80;99.90
18934;DHT22;9599;53.706;10.384;2023-01-20T13:38:44;3.90;99.90
18934;DHT22;9599;53.706;10.384;2023-01-20T13:41:46;3.80;99.90
18934;DHT22;9599;53.706;10.384;2023-01-20T13:44:30;3.80;99.90
18934;DHT22;9599;53.706;10.384;2023-01-20T13:47:00;3.90;99.90
18934;DHT22;9599;53.706;10.384;2023-01-20T13:49:45;3.90;99.90
18934;DHT22;9599;53.706;10.384;2023-01-20T13:52:14;3.90;99.90
18934;DHT22;9599;53.706;10.384;2023-01-20T13:54:45;3.90;99.90
18934;DHT22;9599;53.706;10.384;2023-01-20T13:57:44;3.90;99.90
18934;DHT22;9599;53.706;10.384;2023-01-20T14:00:18;3.90;99.90
18934;DHT22;9599;53.706;10.384;2023-01-20T14:02:48;3.90;99.90
18934;DHT22;9599;53.706;10.384;2023-01-20T14:05:28;3.80;99.90
18934;DHT22;9599;53.706;10.384;2023-01-20T14:07:57;3.80;99.90
18934;DHT22;9599;53.706;10.384;2023-01-20T14:10:26;3.90;99.90
18934;DHT22;9599;53.706;10.384;2023-01-20T14:12:55;3.80;99.90
18934;DHT22;9599;53.706;10.384;2023-01-20T14:15:30;3.80;99.90
18934;DHT22;9599;53.706;10.384;2023-01-20T14:17:59;3.80;99.90
18934;DHT22;9599;53.706;10.384;2023-01-20T14:20:28;3.80;99.90
18934;DHT22;9599;53.706;10.384;2023-01-20T14:23:26;3.80;99.90
18934;DHT22;9599;53.706;10.384;2023-01-20T14:26:06;3.90;99.90
18934;DHT22;9599;53.706;10.384;2023-01-20T14:28:43;3.90;99.90
18934;DHT22;9599;53.706;10.384;2023-01-20T14:34:20;3.80;99.90
18934;DHT22;9599;53.706;10.384;2023-01-20T14:36:50;3.90;99.90
18934;DHT22;9599;53.706;10.384;2023-01-20T14:39:19;3.90;99.90
18934;DHT22;9599;53.706;10.384;2023-01-20T14:41:49;3.90;99.90
18934;DHT22;9599;53.706;10.384;2023-01-20T14:44:20;3.90;99.90
18934;DHT22;9599;53.706;10.384;2023-01-20T14:46:51;3.90;99.90
18934;DHT22;9599;53.706;10.384;2023-01-20T14:49:21;3.90;99.90
18934;DHT22;9599;53.706;10.384;2023-01-20T14:51:49;3.90;99.90
18934;DHT22;9599;53.706;10.384;2023-01-20T14:54:35;3.90;99.90
18934;DHT22;9599;53.706;10.384;2023-01-20T14:57:25;3.90;99.90
18934;DHT22;9599;53.706;10.384;2023-01-20T15:00:19;3.90;99.90
18934;DHT22;9599;53.706;10.384;2023-01-20T15:02:49;3.90;99.90
18934;DHT22;9599;53.706;10.384;2023-01-20T15:05:37;3.90;99.90
18934;DHT22;9599;53.706;10.384;2023-01-20T15:08:16;3.90;99.90
18934;DHT22;9599;53.706;10.384;2023-01-20T15:11:10;3.90;99.90
18934;DHT22;9599;53.706;10.384;2023-01-20T15:13:39;3.90;99.90
18934;DHT22;9599;53.706;10.384;2023-01-20T15:16:15;3.90;99.90
18934;DHT22;9599;53.706;10.384;2023-01-20T15:19:17;3.80;99.90
18934;DHT22;9599;53.706;10.384;2023-01-20T15:22:03;3.70;99.90
18934;DHT22;9599;53.706;10.384;2023-01-20T15:24:37;3.70;99.90
18934;DHT22;9599;53.706;10.384;2023-01-20T15:27:22;3.70;99.90
18934;DHT22;9599;53.706;10.384;2023-01-20T15:30:02;3.70;99.90
18934;DHT22;9599;53.706;10.384;2023-01-20T15:32:32;3.70;99.90
18934;DHT22;9599;53.706;10.384;2023-01-20T15:35:00;3.70;99.90
18934;DHT22;9599;53.706;10.384;2023-01-20T15:37:28;3.60;99.90
18934;DHT22;9599;53.706;10.384;2023-01-20T15:39:55;3.60;99.90
18934;DHT22;9599;53.706;10.384;2023-01-20T15:42:24;3.60;99.90
18934;DHT22;9599;53.706;10.384;2023-01-20T15:44:52;3.50;99.90
18934;DHT22;9599;53.706;10.384;2023-01-20T15:47:21;3.50;99.90
18934;DHT22;9599;53.706;10.384;2023-01-20T15:49:56;3.50;99.90
18934;DHT22;9599;53.706;10.384;2023-01-20T15:52:24;3.40;99.90
18934;DHT22;9599;53.706;10.384;2023-01-20T15:54:52;3.30;99.90
18934;DHT22;9599;53.706;10.384;2023-01-20T15:57:20;3.30;99.90
18934;DHT22;9599;53.706;10.384;2023-01-20T15:59:47;3.30;99.90
18934;DHT22;9599;53.706;10.384;2023-01-20T16:02:17;3.30;99.90
18934;DHT22;9599;53.706;10.384;2023-01-20T16:04:45;3.20;99.90
18934;DHT22;9599;53.706;10.384;2023-01-20T16:07:18;3.00;99.90
18934;DHT22;9599;53.706;10.384;2023-01-20T16:09:46;3.10;99.90
18934;DHT22;9599;53.706;10.384;2023-01-20T16:12:16;3.20;99.90
18934;DHT22;9599;53.706;10.384;2023-01-20T16:14:44;3.10;99.90
18934;DHT22;9599;53.706;10.384;2023-01-20T16:17:13;3.20;99.90
18934;DHT22;9599;53.706;10.384;2023-01-20T16:19:42;3.10;99.90
18934;DHT22;9599;53.706;10.384;2023-01-20T16:22:10;3.20;99.90
18934;DHT22;9599;53.706;10.384;2023-01-20T16:24:41;3.20;99.90
18934;DHT22;9599;53.706;10.384;2023-01-20T16:27:13;3.10;99.90